Time;durP1;ratioP1;P1;durP2;ratioP2;P2;SDS_P1;SDS_P2;PMS_P1;PMS_P2;Temp;Humidity;BMP_temperature;BMP_pressure;BME280_temperature;BME280_humidity;BME280_pressure;Samples;Min_cycle;Max_cycle;Signal;HPM_P1;HPM_P2
2022/07/12 00:01:05;;;;;;;0.88;0.60;;;22.70;63.90;;;;;;5028699;28;20041;-61
2022/07/12 00:03:31;;;;;;;0.60;0.60;;;22.70;63.80;;;;;;5028763;28;20397;-61
2022/07/12 00:05:57;;;;;;;0.50;0.50;;;22.70;63.80;;;;;;5028171;28;20041;-62
2022/07/12 00:08:23;;;;;;;0.60;0.60;;;22.70;63.70;;;;;;5028510;28;20044;-62
2022/07/12 00:10:49;;;;;;;0.40;0.40;;;22.70;63.70;;;;;;5012368;28;20034;-62
2022/07/12 00:13:15;;;;;;;0.60;0.60;;;22.70;63.70;;;;;;5007856;28;20721;-62
2022/07/12 00:15:41;;;;;;;1.10;0.50;;;22.70;63.70;;;;;;5028809;28;20045;-63
2022/07/12 00:18:07;;;;;;;0.45;0.45;;;22.70;63.60;;;;;;5007308;28;20042;-64
2022/07/12 00:20:33;;;;;;;0.50;0.50;;;22.70;63.60;;;;;;5028553;28;20044;-62
2022/07/12 00:22:58;;;;;;;0.50;0.50;;;22.70;63.50;;;;;;5009163;28;20025;-62
2022/07/12 00:25:25;;;;;;;0.40;0.40;;;22.70;63.50;;;;;;5027790;28;20049;-63
2022/07/12 00:27:51;;;;;;;0.60;0.45;;;22.70;63.40;;;;;;5028586;28;20041;-62
2022/07/12 00:30:17;;;;;;;1.05;0.55;;;22.70;63.50;;;;;;5010663;28;20041;-62
2022/07/12 00:32:43;;;;;;;1.02;0.50;;;22.70;63.30;;;;;;5027852;28;20079;-62
2022/07/12 00:35:09;;;;;;;0.50;0.50;;;22.70;63.40;;;;;;5028569;28;20493;-62
2022/07/12 00:37:35;;;;;;;0.57;0.50;;;22.70;63.30;;;;;;5030017;28;20052;-62
2022/07/12 00:40:00;;;;;;;0.75;0.63;;;22.70;63.30;;;;;;5009886;28;20041;-62
2022/07/12 00:42:27;;;;;;;0.57;0.57;;;22.70;63.30;;;;;;5029871;28;20041;-62
2022/07/12 00:44:52;;;;;;;0.50;0.50;;;22.60;63.10;;;;;;5029149;28;20039;-63
2022/07/12 00:47:37;;;;;;;0.77;0.50;;;22.70;63.20;;;;;;5026478;28;20053;-62
2022/07/12 00:50:09;;;;;;;0.55;0.45;;;22.70;63.10;;;;;;5030462;28;20577;-62
2022/07/12 00:52:37;;;;;;;0.50;0.50;;;22.60;63.10;;;;;;5028986;28;20537;-61
2022/07/12 00:55:04;;;;;;;0.45;0.40;;;22.60;63.00;;;;;;5028433;28;20045;-62
2022/07/12 00:57:30;;;;;;;0.60;0.60;;;22.60;63.00;;;;;;5029407;28;20136;-61
2022/07/12 00:59:56;;;;;;;0.63;0.63;;;22.60;63.00;;;;;;5030103;28;20041;-62
2022/07/12 01:02:22;;;;;;;0.55;0.55;;;22.60;63.00;;;;;;5006478;28;20092;-62
2022/07/12 01:04:48;;;;;;;0.50;0.50;;;22.60;62.90;;;;;;5028304;28;20040;-62
2022/07/12 01:07:15;;;;;;;0.63;0.63;;;22.60;62.90;;;;;;5028333;28;20072;-63
2022/07/12 01:09:40;;;;;;;1.30;0.40;;;22.60;62.90;;;;;;5026863;28;20052;-62
2022/07/12 01:12:07;;;;;;;0.90;0.65;;;22.60;62.90;;;;;;5028924;28;20120;-62
2022/07/12 01:14:34;;;;;;;0.50;0.50;;;22.60;62.90;;;;;;5027908;28;20785;-62
2022/07/12 01:16:59;;;;;;;1.05;0.50;;;22.60;62.80;;;;;;5029646;28;20135;-62
2022/07/12 01:19:25;;;;;;;0.75;0.70;;;22.60;62.70;;;;;;5009291;28;20049;-63
2022/07/12 01:21:52;;;;;;;0.50;0.50;;;22.60;62.70;;;;;;5008122;28;20052;-62
2022/07/12 01:24:19;;;;;;;0.50;0.50;;;22.60;62.70;;;;;;5008910;28;20356;-62
2022/07/12 01:26:46;;;;;;;0.60;0.50;;;22.60;62.70;;;;;;5029033;28;20048;-63
2022/07/12 01:29:14;;;;;;;0.50;0.50;;;22.60;62.60;;;;;;5008883;28;20551;-63
2022/07/12 01:31:40;;;;;;;0.85;0.65;;;22.60;62.60;;;;;;5027737;28;20390;-61
2022/07/12 01:34:06;;;;;;;0.50;0.50;;;22.60;63.30;;;;;;5026091;28;20041;-62
2022/07/12 01:36:32;;;;;;;0.60;0.60;;;22.60;62.60;;;;;;5012443;28;20041;-62
2022/07/12 01:38:58;;;;;;;0.55;0.50;;;22.60;62.50;;;;;;5008447;28;20055;-63
2022/07/12 01:41:24;;;;;;;0.50;0.50;;;22.60;62.50;;;;;;5027047;28;20048;-62
2022/07/12 01:43:53;;;;;;;0.60;0.60;;;22.60;62.50;;;;;;5030865;28;20060;-62
2022/07/12 01:46:19;;;;;;;0.50;0.50;;;22.60;62.40;;;;;;5028416;28;20042;-62
2022/07/12 01:48:45;;;;;;;0.60;0.60;;;22.60;62.40;;;;;;5030332;28;20115;-62
2022/07/12 01:51:10;;;;;;;0.63;0.63;;;22.60;62.40;;;;;;5013878;28;20052;-62
2022/07/12 01:53:36;;;;;;;0.50;0.50;;;22.60;62.40;;;;;;5033326;28;20037;-61
2022/07/12 01:56:06;;;;;;;0.60;0.57;;;22.60;62.40;;;;;;5011628;28;20559;-63
2022/07/12 01:58:32;;;;;;;0.50;0.40;;;22.60;62.40;;;;;;5033319;28;20634;-62
2022/07/12 02:00:58;;;;;;;1.08;0.70;;;22.60;62.30;;;;;;5033741;28;20033;-64
2022/07/12 02:03:24;;;;;;;0.50;0.50;;;22.60;62.30;;;;;;5028677;28;20739;-62
2022/07/12 02:05:49;;;;;;;0.95;0.50;;;22.60;62.30;;;;;;5033534;28;20041;-62
2022/07/12 02:08:15;;;;;;;0.50;0.50;;;22.60;62.30;;;;;;5030944;28;20037;-63
2022/07/12 02:10:42;;;;;;;0.80;0.80;;;22.60;62.20;;;;;;5029116;28;20811;-62
2022/07/12 02:13:08;;;;;;;0.50;0.50;;;22.60;62.10;;;;;;5032951;28;20594;-62
2022/07/12 02:15:34;;;;;;;1.27;0.70;;;22.60;62.10;;;;;;5031764;28;20587;-63
2022/07/12 02:18:00;;;;;;;0.82;0.47;;;22.60;62.10;;;;;;5013485;28;20033;-62
2022/07/12 02:20:25;;;;;;;0.40;0.40;;;22.60;62.00;;;;;;5031711;28;20508;-61
2022/07/12 02:22:51;;;;;;;0.50;0.40;;;22.60;62.00;;;;;;5012546;28;20548;-62
2022/07/12 02:25:17;;;;;;;0.55;0.50;;;22.50;62.00;;;;;;5031059;28;20473;-62
2022/07/12 02:27:43;;;;;;;0.50;0.50;;;22.50;61.90;;;;;;5032395;28;20068;-61
2022/07/12 02:30:10;;;;;;;0.50;0.50;;;22.50;61.90;;;;;;5014713;28;20081;-62
2022/07/12 02:32:37;;;;;;;0.50;0.50;;;22.50;61.80;;;;;;5009948;28;20040;-61
2022/07/12 02:35:06;;;;;;;0.43;0.40;;;22.60;61.90;;;;;;5029519;28;20060;-63
2022/07/12 02:37:32;;;;;;;0.40;0.40;;;22.50;61.70;;;;;;5027013;28;20056;-63
2022/07/12 02:42:43;;;;;;;0.47;0.47;;;22.50;61.60;;;;;;5032070;28;20096;-62
2022/07/12 02:45:10;;;;;;;0.47;0.47;;;22.50;61.60;;;;;;5031947;28;20409;-61
2022/07/12 02:47:40;;;;;;;0.50;0.50;;;22.50;61.60;;;;;;5013559;28;20127;-62
2022/07/12 02:50:07;;;;;;;0.75;0.63;;;22.50;61.60;;;;;;5030932;28;20045;-62
2022/07/12 02:52:33;;;;;;;0.40;0.40;;;22.50;61.50;;;;;;5014177;28;20532;-62
2022/07/12 02:54:59;;;;;;;0.40;0.40;;;22.50;61.50;;;;;;5029546;28;20127;-63
2022/07/12 02:57:25;;;;;;;0.40;0.40;;;22.50;61.50;;;;;;5033894;28;20493;-62
2022/07/12 02:59:51;;;;;;;0.60;0.60;;;22.50;61.50;;;;;;5030994;28;20698;-62
2022/07/12 03:02:16;;;;;;;0.55;0.55;;;22.50;61.40;;;;;;5030521;28;20036;-63
2022/07/12 03:04:42;;;;;;;0.50;0.50;;;22.50;61.40;;;;;;5029363;28;20654;-62
2022/07/12 03:07:08;;;;;;;0.40;0.40;;;22.50;61.40;;;;;;5031168;28;20462;-62
2022/07/12 03:09:33;;;;;;;0.82;0.60;;;22.50;61.40;;;;;;5015083;28;20068;-62
2022/07/12 03:11:59;;;;;;;0.40;0.40;;;22.50;61.30;;;;;;5028706;28;20044;-62
2022/07/12 03:14:24;;;;;;;0.40;0.38;;;22.50;61.30;;;;;;5031277;28;20060;-62
2022/07/12 03:16:50;;;;;;;0.50;0.50;;;22.50;61.30;;;;;;5030904;28;20785;-62
2022/07/12 03:19:16;;;;;;;0.60;0.60;;;22.50;61.30;;;;;;5030487;28;20092;-62
2022/07/12 03:21:42;;;;;;;0.47;0.47;;;22.50;61.20;;;;;;5029603;28;20080;-62
2022/07/12 03:24:08;;;;;;;0.40;0.40;;;22.50;61.20;;;;;;5032549;28;20440;-61
2022/07/12 03:26:33;;;;;;;0.50;0.50;;;22.50;61.10;;;;;;5030352;28;20053;-62
2022/07/12 03:29:02;;;;;;;1.00;0.32;;;22.50;61.10;;;;;;5030783;28;20033;-62
2022/07/12 03:31:28;;;;;;;0.50;0.50;;;22.50;61.10;;;;;;5030777;28;20040;-62
2022/07/12 03:33:54;;;;;;;0.65;0.50;;;22.50;61.00;;;;;;5030771;28;20044;-62
2022/07/12 03:36:20;;;;;;;0.40;0.40;;;22.40;61.00;;;;;;5029773;28;20371;-63
2022/07/12 03:38:46;;;;;;;0.40;0.40;;;22.50;61.00;;;;;;5029741;28;20052;-61
2022/07/12 03:41:11;;;;;;;0.75;0.60;;;22.50;61.00;;;;;;5010987;28;20068;-62
2022/07/12 03:43:37;;;;;;;0.50;0.50;;;22.40;60.90;;;;;;5011355;28;20474;-61
2022/07/12 03:46:03;;;;;;;0.30;0.30;;;22.40;60.80;;;;;;5031383;28;20489;-62
2022/07/12 03:48:29;;;;;;;0.40;0.40;;;22.50;60.90;;;;;;5029209;28;20116;-62
2022/07/12 03:50:55;;;;;;;0.30;0.30;;;22.40;60.80;;;;;;5027779;28;20393;-62
2022/07/12 03:53:21;;;;;;;0.30;0.30;;;22.50;60.80;;;;;;5029498;28;20045;-62
2022/07/12 03:55:47;;;;;;;0.40;0.40;;;22.50;60.80;;;;;;5027708;28;20473;-61
2022/07/12 03:58:13;;;;;;;0.30;0.30;;;22.40;60.60;;;;;;5010530;28;20350;-61
2022/07/12 04:00:40;;;;;;;0.40;0.30;;;22.40;60.70;;;;;;5031195;28;20400;-62
2022/07/12 04:03:05;;;;;;;0.30;0.30;;;22.40;60.70;;;;;;5011587;28;20052;-62
2022/07/12 04:05:31;;;;;;;0.40;0.40;;;22.40;61.40;;;;;;5030979;28;20032;-62
2022/07/12 04:07:57;;;;;;;0.28;0.28;;;22.40;60.60;;;;;;5006935;28;20584;-62
2022/07/12 04:10:22;;;;;;;0.40;0.40;;;22.40;60.60;;;;;;5024597;28;20094;-61
2022/07/12 04:12:48;;;;;;;0.40;0.40;;;22.40;60.60;;;;;;5029128;28;20052;-62
2022/07/12 04:15:14;;;;;;;0.47;0.43;;;22.40;60.60;;;;;;5027371;28;20050;-63
2022/07/12 04:17:40;;;;;;;0.30;0.30;;;22.40;60.50;;;;;;5028731;28;20098;-62
2022/07/12 04:20:06;;;;;;;0.30;0.30;;;22.40;60.50;;;;;;5029717;28;20513;-63
2022/07/12 04:22:32;;;;;;;1.27;0.55;;;22.40;61.30;;;;;;4998456;28;20075;-61
2022/07/12 04:24:58;;;;;;;0.55;0.50;;;22.40;60.50;;;;;;5030505;28;20874;-62
2022/07/12 04:27:26;;;;;;;1.15;0.40;;;22.40;60.40;;;;;;5010340;28;20033;-62
2022/07/12 04:29:52;;;;;;;1.27;0.50;;;22.40;60.40;;;;;;5029442;28;20045;-62
2022/07/12 04:32:17;;;;;;;2.38;0.50;;;22.40;60.40;;;;;;5011872;28;20049;-64
2022/07/12 04:34:43;;;;;;;0.40;0.40;;;22.40;60.40;;;;;;5028239;28;20038;-62
2022/07/12 04:37:09;;;;;;;0.80;0.60;;;22.40;60.40;;;;;;5027294;28;20385;-62
2022/07/12 04:39:34;;;;;;;0.40;0.40;;;22.40;60.30;;;;;;5026314;28;20065;-62
2022/07/12 04:42:00;;;;;;;0.50;0.40;;;22.40;60.30;;;;;;5010040;28;20056;-61
2022/07/12 04:44:26;;;;;;;0.50;0.43;;;22.40;60.20;;;;;;5026181;28;20425;-63
2022/07/12 04:46:51;;;;;;;0.40;0.40;;;22.40;60.20;;;;;;5024538;28;20742;-63
2022/07/12 04:49:17;;;;;;;2.15;0.40;;;22.40;60.20;;;;;;5023685;28;20041;-62
2022/07/12 04:51:43;;;;;;;0.50;0.45;;;22.40;60.20;;;;;;5008510;28;20045;-63
2022/07/12 04:54:09;;;;;;;0.47;0.47;;;22.40;60.20;;;;;;5025842;28;20065;-61
2022/07/12 04:56:34;;;;;;;0.30;0.30;;;22.40;60.20;;;;;;5026300;28;20033;-61
2022/07/12 04:59:00;;;;;;;0.30;0.30;;;22.40;60.20;;;;;;5027654;28;20115;-63
2022/07/12 05:01:26;;;;;;;1.00;0.40;;;22.40;60.20;;;;;;5028082;28;20050;-61
2022/07/12 05:03:51;;;;;;;0.30;0.30;;;22.40;60.20;;;;;;5030063;28;20045;-61
2022/07/12 05:06:18;;;;;;;0.50;0.40;;;22.40;60.20;;;;;;5027279;28;20054;-61
2022/07/12 05:08:43;;;;;;;0.57;0.50;;;22.40;60.20;;;;;;5029045;28;20517;-61
2022/07/12 05:11:09;;;;;;;0.45;0.45;;;22.40;60.10;;;;;;5028967;28;20041;-61
2022/07/12 05:13:34;;;;;;;0.40;0.40;;;22.40;60.20;;;;;;5028270;28;20037;-63
2022/07/12 05:16:00;;;;;;;0.50;0.50;;;22.40;60.20;;;;;;5028592;28;20488;-63
2022/07/12 05:18:26;;;;;;;1.23;0.47;;;22.40;60.10;;;;;;5030993;28;20132;-63
2022/07/12 05:20:51;;;;;;;0.50;0.40;;;22.40;60.20;;;;;;5009051;28;20065;-62
2022/07/12 05:23:17;;;;;;;0.50;0.50;;;22.30;60.10;;;;;;5030395;28;20029;-62
2022/07/12 05:25:43;;;;;;;0.50;0.50;;;22.40;60.20;;;;;;5028139;28;20450;-63
2022/07/12 05:28:08;;;;;;;0.40;0.40;;;22.40;60.20;;;;;;5025249;28;20033;-62
2022/07/12 05:30:34;;;;;;;0.75;0.40;;;22.40;60.20;;;;;;5029419;28;20029;-62
2022/07/12 05:33:00;;;;;;;0.47;0.43;;;22.40;60.30;;;;;;5027171;28;20850;-61
2022/07/12 05:35:26;;;;;;;0.65;0.65;;;22.30;60.20;;;;;;5009688;28;20045;-62
2022/07/12 05:37:52;;;;;;;0.57;0.57;;;22.40;60.30;;;;;;5029677;28;20504;-62
2022/07/12 05:40:18;;;;;;;0.95;0.50;;;22.40;60.20;;;;;;5029616;28;20068;-62
2022/07/12 05:42:45;;;;;;;1.38;0.60;;;22.40;60.20;;;;;;5028409;28;20049;-62
2022/07/12 05:45:10;;;;;;;0.30;0.30;;;22.40;60.30;;;;;;5009018;28;20155;-61
2022/07/12 05:47:36;;;;;;;1.35;0.50;;;22.40;60.30;;;;;;5007304;28;20144;-62
2022/07/12 05:50:04;;;;;;;0.88;0.38;;;22.40;60.30;;;;;;5029563;28;20706;-61
2022/07/12 05:55:14;;;;;;;1.38;0.50;;;22.40;60.40;;;;;;5027285;28;20085;-62
2022/07/12 05:57:39;;;;;;;0.82;0.60;;;22.40;60.60;;;;;;5028532;28;20136;-62
2022/07/12 06:00:06;;;;;;;1.65;0.60;;;22.40;60.60;;;;;;5010811;28;20065;-62
2022/07/12 06:02:31;;;;;;;0.80;0.50;;;22.40;60.80;;;;;;5030919;28;20052;-62
2022/07/12 06:04:57;;;;;;;0.77;0.68;;;22.40;60.70;;;;;;5027565;28;20594;-61
2022/07/12 06:07:23;;;;;;;0.40;0.40;;;22.40;60.70;;;;;;5026499;28;20029;-63
2022/07/12 06:09:48;;;;;;;0.63;0.50;;;22.40;60.80;;;;;;4998921;28;20046;-62
2022/07/12 06:12:14;;;;;;;1.02;0.50;;;22.40;60.90;;;;;;5027518;28;20094;-62
2022/07/12 06:14:39;;;;;;;0.65;0.40;;;22.40;61.10;;;;;;5028784;28;20096;-62
2022/07/12 06:17:08;;;;;;;0.90;0.50;;;22.40;61.10;;;;;;5027553;28;20061;-61
2022/07/12 06:19:34;;;;;;;1.05;0.60;;;22.40;61.00;;;;;;5027176;28;20500;-62
2022/07/12 06:22:00;;;;;;;1.73;0.50;;;22.40;61.10;;;;;;5027225;28;20034;-62
2022/07/12 06:24:26;;;;;;;1.67;0.57;;;22.50;61.30;;;;;;5028622;28;20128;-63
2022/07/12 06:26:52;;;;;;;1.85;0.50;;;22.50;61.40;;;;;;5027274;28;20121;-64
2022/07/12 06:29:17;;;;;;;2.67;0.57;;;22.50;61.40;;;;;;5027709;28;20033;-64
2022/07/12 06:31:43;;;;;;;3.13;0.52;;;22.50;61.30;;;;;;5030152;28;20049;-65
2022/07/12 06:34:09;;;;;;;1.42;0.60;;;22.40;61.20;;;;;;5028657;28;20101;-61
2022/07/12 06:36:34;;;;;;;1.45;0.60;;;22.50;61.60;;;;;;5031435;28;20052;-61
2022/07/12 06:39:00;;;;;;;1.58;0.50;;;22.50;61.70;;;;;;5030403;28;20049;-63
2022/07/12 06:41:25;;;;;;;3.55;0.73;;;22.50;61.80;;;;;;4995242;28;20053;-64
2022/07/12 06:43:51;;;;;;;2.35;0.70;;;22.50;61.70;;;;;;5030904;28;20525;-62
2022/07/12 06:46:17;;;;;;;1.85;0.57;;;22.50;61.60;;;;;;5028876;28;21841;-62
2022/07/12 06:48:42;;;;;;;2.42;0.80;;;22.50;61.60;;;;;;5013766;28;20552;-62
2022/07/12 06:51:09;;;;;;;1.45;0.55;;;22.50;62.00;;;;;;5012134;28;20477;-62
2022/07/12 06:53:35;;;;;;;2.03;0.90;;;22.50;61.70;;;;;;5028847;28;20140;-62
2022/07/12 06:56:00;;;;;;;1.40;0.70;;;22.50;61.80;;;;;;5029839;28;20053;-62
2022/07/12 06:58:26;;;;;;;1.50;0.70;;;22.50;62.00;;;;;;5009399;28;20049;-65
2022/07/12 07:00:52;;;;;;;2.03;0.50;;;22.50;62.10;;;;;;5029208;28;20048;-62
2022/07/12 07:03:18;;;;;;;0.80;0.63;;;22.50;62.10;;;;;;5027972;28;20049;-63
2022/07/12 07:05:43;;;;;;;1.38;0.57;;;22.50;62.10;;;;;;5030599;28;20045;-64
2022/07/12 07:08:09;;;;;;;1.92;0.65;;;22.50;62.20;;;;;;5029152;28;20477;-62
2022/07/12 07:10:34;;;;;;;2.28;0.75;;;22.50;62.40;;;;;;5011456;28;20128;-62
2022/07/12 07:13:00;;;;;;;2.72;1.13;;;22.50;62.80;;;;;;5027368;28;20082;-62
2022/07/12 07:15:26;;;;;;;5.95;0.70;;;22.50;63.00;;;;;;5008609;28;20367;-62
2022/07/12 07:17:52;;;;;;;1.05;0.85;;;22.50;63.10;;;;;;5010963;28;20072;-62
2022/07/12 07:20:18;;;;;;;2.15;0.60;;;22.50;63.20;;;;;;5030297;28;20033;-62
2022/07/12 07:22:43;;;;;;;2.15;0.77;;;22.50;63.30;;;;;;5008604;28;20037;-61
2022/07/12 07:25:09;;;;;;;4.82;1.00;;;22.50;63.30;;;;;;5029075;28;20034;-61
2022/07/12 07:27:35;;;;;;;3.05;0.70;;;22.50;63.30;;;;;;5027570;28;20044;-62
2022/07/12 07:32:45;;;;;;;5.20;1.02;;;22.50;63.60;;;;;;5030662;28;20170;-62
2022/07/12 07:35:11;;;;;;;2.40;0.73;;;22.50;63.80;;;;;;5027862;28;20120;-62
2022/07/12 07:37:37;;;;;;;9.27;1.17;;;22.50;63.90;;;;;;5030202;28;20045;-61
2022/07/12 07:40:03;;;;;;;6.63;1.10;;;22.50;64.00;;;;;;5029770;28;20140;-63
2022/07/12 07:42:28;;;;;;;3.40;0.90;;;22.50;64.10;;;;;;5027458;28;20075;-61
2022/07/12 07:44:54;;;;;;;1.83;0.77;;;22.50;64.10;;;;;;5028847;28;20034;-62
2022/07/12 07:47:19;;;;;;;2.40;1.00;;;22.50;64.10;;;;;;5028452;28;20068;-63
2022/07/12 07:49:45;;;;;;;5.00;1.35;;;22.50;64.20;;;;;;5029689;28;20049;-63
2022/07/12 07:52:11;;;;;;;6.05;0.98;;;22.60;64.40;;;;;;5027748;28;20477;-62
2022/07/12 07:54:36;;;;;;;3.78;1.10;;;22.60;64.60;;;;;;5028319;28;20738;-63
2022/07/12 07:57:03;;;;;;;5.43;1.08;;;22.60;64.70;;;;;;5029266;28;20049;-63
2022/07/12 07:59:28;;;;;;;1.75;0.80;;;22.60;64.70;;;;;;5027645;28;20045;-62
2022/07/12 08:01:54;;;;;;;2.95;0.85;;;22.60;64.70;;;;;;5009072;28;20046;-62
2022/07/12 08:04:21;;;;;;;5.63;1.00;;;22.60;64.80;;;;;;5026164;28;20042;-62
2022/07/12 08:06:48;;;;;;;2.88;0.90;;;22.60;65.00;;;;;;5030030;28;20087;-64
2022/07/12 08:09:14;;;;;;;2.70;0.98;;;22.60;65.20;;;;;;5028063;28;20072;-62
2022/07/12 08:11:41;;;;;;;4.15;1.33;;;22.60;65.00;;;;;;5006732;28;20036;-63
2022/07/12 08:14:07;;;;;;;3.70;1.00;;;22.60;65.00;;;;;;5007815;28;20125;-62
2022/07/12 08:16:33;;;;;;;2.15;0.80;;;22.60;65.10;;;;;;5007528;28;20044;-62
2022/07/12 08:18:59;;;;;;;3.60;1.00;;;22.60;65.10;;;;;;5031313;28;20037;-62
2022/07/12 08:21:25;;;;;;;3.63;1.13;;;22.60;65.10;;;;;;5010266;28;20462;-62
2022/07/12 08:23:51;;;;;;;2.55;0.80;;;22.70;65.20;;;;;;5027328;28;20044;-63
2022/07/12 08:26:16;;;;;;;3.60;0.93;;;22.70;65.30;;;;;;5029273;28;20453;-62
2022/07/12 08:28:42;;;;;;;0.95;0.75;;;22.70;65.40;;;;;;5027200;28;20041;-62
2022/07/12 08:31:10;;;;;;;4.30;1.13;;;22.70;65.40;;;;;;5024838;28;20131;-62
2022/07/12 08:33:36;;;;;;;2.08;1.08;;;22.70;65.40;;;;;;5011042;28;20037;-63
2022/07/12 08:36:01;;;;;;;2.47;0.88;;;22.70;65.50;;;;;;5027623;28;20044;-62
2022/07/12 08:38:27;;;;;;;1.60;0.63;;;22.70;65.50;;;;;;4992131;28;20037;-63
2022/07/12 08:40:53;;;;;;;3.35;0.80;;;22.70;65.80;;;;;;5026092;28;20045;-63
2022/07/12 08:43:18;;;;;;;2.25;0.82;;;22.70;65.50;;;;;;5026218;28;20049;-63
2022/07/12 08:45:44;;;;;;;6.15;0.90;;;22.70;65.60;;;;;;5028214;28;20497;-63
2022/07/12 08:48:10;;;;;;;2.25;0.98;;;22.70;65.60;;;;;;5008831;28;20044;-63
2022/07/12 08:50:36;;;;;;;1.80;0.80;;;22.70;65.70;;;;;;5025680;28;20045;-62
2022/07/12 08:53:01;;;;;;;1.90;0.85;;;22.70;65.80;;;;;;5028554;28;20478;-62
2022/07/12 08:55:28;;;;;;;2.03;0.70;;;22.70;65.80;;;;;;5028765;28;20048;-63
2022/07/12 08:57:58;;;;;;;2.90;0.80;;;22.70;65.90;;;;;;5028175;28;20049;-63
2022/07/12 09:00:26;;;;;;;4.22;1.00;;;22.70;65.70;;;;;;5026881;28;20040;-62
2022/07/12 09:02:51;;;;;;;0.90;0.90;;;22.70;65.80;;;;;;5025261;28;20128;-63
2022/07/12 09:05:23;;;;;;;0.98;0.70;;;22.70;65.90;;;;;;5007235;28;20045;-63
2022/07/12 09:07:49;;;;;;;1.88;1.05;;;22.70;66.00;;;;;;5026170;28;20465;-61
2022/07/12 09:10:16;;;;;;;1.13;0.80;;;22.60;66.00;;;;;;5026519;28;20478;-63
2022/07/12 09:12:42;;;;;;;1.65;0.70;;;22.70;66.10;;;;;;5008041;28;20053;-62
2022/07/12 09:15:12;;;;;;;1.00;0.88;;;22.70;66.10;;;;;;5025906;28;20824;-62
2022/07/12 09:17:38;;;;;;;0.88;0.65;;;22.70;66.20;;;;;;5022341;28;20608;-63
2022/07/12 09:20:05;;;;;;;1.95;0.80;;;22.70;66.30;;;;;;5028185;28;20064;-62
2022/07/12 09:22:30;;;;;;;1.60;0.70;;;22.70;66.10;;;;;;4994262;28;21694;-62
2022/07/12 09:24:56;;;;;;;1.20;0.85;;;22.70;66.00;;;;;;5010005;28;20049;-62
2022/07/12 09:27:25;;;;;;;1.48;0.60;;;22.70;65.90;;;;;;5027881;28;20059;-63
2022/07/12 09:29:51;;;;;;;1.67;0.80;;;22.70;65.80;;;;;;5025787;28;20041;-63
2022/07/12 09:37:48;;;;;;;1.13;0.70;;;22.70;65.70;;;;;;5008232;28;20053;-63
2022/07/12 09:40:14;;;;;;;1.85;0.70;;;22.70;65.60;;;;;;5007064;28;20509;-63
2022/07/12 09:42:40;;;;;;;1.17;0.77;;;22.70;65.60;;;;;;5027442;28;20080;-63
2022/07/12 09:45:09;;;;;;;0.73;0.70;;;22.70;65.60;;;;;;5026999;28;20041;-62
2022/07/12 09:47:35;;;;;;;0.82;0.80;;;22.70;65.60;;;;;;5009771;28;20050;-62
2022/07/12 09:50:01;;;;;;;1.75;0.82;;;22.70;65.60;;;;;;5028237;28;20420;-62
2022/07/12 09:52:28;;;;;;;2.15;0.90;;;22.70;65.50;;;;;;5024242;28;20042;-62
2022/07/12 09:54:55;;;;;;;3.42;0.82;;;22.70;65.50;;;;;;5028046;28;20487;-62
2022/07/12 09:57:27;;;;;;;1.73;0.80;;;22.70;65.60;;;;;;5028032;28;20040;-64
2022/07/12 09:59:53;;;;;;;1.75;0.90;;;22.70;65.70;;;;;;5026217;28;20073;-61
2022/07/12 10:02:21;;;;;;;1.67;1.00;;;22.70;65.70;;;;;;5026478;28;20037;-60
2022/07/12 10:04:47;;;;;;;3.50;1.63;;;22.70;65.80;;;;;;5027508;28;20115;-61
2022/07/12 10:07:15;;;;;;;4.78;2.13;;;22.70;65.80;;;;;;5007827;28;20362;-61
2022/07/12 10:09:50;;;;;;;6.47;3.30;;;22.70;65.90;;;;;;5031326;28;20094;-62
2022/07/12 10:12:17;;;;;;;4.78;3.60;;;22.70;65.90;;;;;;5030649;28;20037;-62
2022/07/12 10:14:44;;;;;;;6.97;3.20;;;22.70;65.90;;;;;;5031803;28;20500;-61
2022/07/12 10:17:11;;;;;;;4.18;2.38;;;22.70;65.80;;;;;;5030744;28;20087;-63
2022/07/12 10:19:37;;;;;;;3.58;2.13;;;22.70;65.70;;;;;;5032319;28;20396;-63
2022/07/12 10:22:17;;;;;;;4.15;2.10;;;22.70;65.70;;;;;;5031342;28;20596;-63
2022/07/12 10:24:44;;;;;;;3.33;2.25;;;22.80;65.80;;;;;;5011440;28;20044;-62
2022/07/12 10:27:13;;;;;;;3.92;2.60;;;22.70;66.10;;;;;;5031294;28;20063;-64
2022/07/12 10:29:43;;;;;;;3.30;2.10;;;22.70;65.80;;;;;;5031169;28;20393;-64
2022/07/12 10:32:26;;;;;;;5.57;2.17;;;22.80;65.80;;;;;;5031467;28;20037;-63
2022/07/12 10:35:00;;;;;;;3.92;2.22;;;22.70;65.70;;;;;;5031172;28;20104;-62
2022/07/12 10:37:26;;;;;;;6.20;2.10;;;22.80;66.00;;;;;;5031836;28;20041;-63
2022/07/12 10:40:10;;;;;;;3.53;1.83;;;22.80;66.10;;;;;;5009356;28;20453;-63
2022/07/12 10:42:35;;;;;;;4.78;1.90;;;22.80;66.20;;;;;;5016052;28;20056;-62
2022/07/12 10:45:15;;;;;;;4.60;1.92;;;22.80;66.20;;;;;;5031150;28;20041;-62
2022/07/12 10:47:57;;;;;;;3.83;2.38;;;22.80;66.30;;;;;;5014587;28;20053;-62
2022/07/12 10:51:00;;;;;;;3.50;1.98;;;22.80;67.10;;;;;;5014201;28;20041;-62
2022/07/12 10:53:37;;;;;;;7.55;2.20;;;22.80;66.40;;;;;;5028541;28;20352;-63
2022/07/12 10:56:25;;;;;;;3.65;1.75;;;22.80;66.30;;;;;;5030502;28;20044;-62
2022/07/12 10:59:00;;;;;;;4.90;2.15;;;22.80;66.30;;;;;;5032003;28;20083;-62
2022/07/12 11:01:30;;;;;;;7.20;2.00;;;22.80;66.40;;;;;;5029469;28;20561;-63
2022/07/12 11:04:10;;;;;;;3.65;1.52;;;22.80;66.40;;;;;;5029972;28;20075;-62
2022/07/12 11:06:37;;;;;;;3.90;1.70;;;22.80;66.30;;;;;;5030407;28;20441;-61
2022/07/12 11:09:05;;;;;;;3.53;1.60;;;22.80;66.30;;;;;;5032007;28;20037;-62
2022/07/12 11:11:32;;;;;;;4.45;1.80;;;22.80;66.20;;;;;;5014851;28;20129;-63
2022/07/12 11:13:59;;;;;;;4.53;1.70;;;22.80;66.20;;;;;;5009097;28;20056;-62
2022/07/12 11:16:26;;;;;;;3.97;1.40;;;22.80;66.30;;;;;;5029580;28;20041;-63
2022/07/12 11:18:52;;;;;;;6.13;1.80;;;22.80;66.30;;;;;;5032149;28;20041;-64
2022/07/12 11:21:19;;;;;;;4.82;1.85;;;22.80;66.20;;;;;;5009847;28;20049;-62
2022/07/12 11:23:45;;;;;;;3.92;2.10;;;22.90;66.40;;;;;;5028109;28;20037;-62
2022/07/12 11:26:12;;;;;;;6.25;2.00;;;22.90;66.30;;;;;;5029757;28;20033;-62
2022/07/12 11:28:39;;;;;;;3.90;1.67;;;22.80;66.30;;;;;;5031879;28;20043;-61
2022/07/12 11:31:11;;;;;;;3.00;1.50;;;22.90;66.40;;;;;;5030187;28;20393;-62
2022/07/12 11:33:41;;;;;;;3.08;1.55;;;22.90;66.30;;;;;;5033144;28;20037;-62
2022/07/12 11:36:09;;;;;;;2.85;1.50;;;22.90;66.40;;;;;;5030527;28;20057;-61
2022/07/12 11:38:36;;;;;;;1.70;1.50;;;22.90;66.30;;;;;;5030557;28;20053;-62
2022/07/12 11:41:03;;;;;;;1.60;1.23;;;22.90;66.30;;;;;;5029260;28;20087;-62
2022/07/12 11:43:30;;;;;;;3.22;1.30;;;22.90;67.00;;;;;;4999897;28;20037;-61
2022/07/12 11:45:56;;;;;;;1.75;1.35;;;22.90;66.20;;;;;;5031697;28;20524;-62
2022/07/12 11:48:23;;;;;;;2.72;1.60;;;22.90;66.30;;;;;;5028051;28;21006;-62
2022/07/12 11:50:53;;;;;;;3.00;1.48;;;22.80;66.20;;;;;;5028663;28;20037;-62
2022/07/12 11:53:26;;;;;;;1.25;1.02;;;22.90;66.20;;;;;;5031207;28;20068;-61
2022/07/12 11:55:55;;;;;;;3.08;1.10;;;22.90;65.90;;;;;;5023219;28;20032;-63
2022/07/12 11:58:22;;;;;;;3.05;1.40;;;22.90;65.90;;;;;;5028511;28;20107;-63
2022/07/12 12:00:49;;;;;;;3.00;1.35;;;22.90;66.30;;;;;;5026941;28;20148;-62
2022/07/12 12:03:16;;;;;;;3.95;1.27;;;22.90;66.20;;;;;;5027052;28;20049;-62
2022/07/12 12:05:43;;;;;;;4.35;1.40;;;22.90;66.50;;;;;;5001058;28;20036;-63
2022/07/12 12:08:13;;;;;;;3.08;1.38;;;22.90;66.70;;;;;;5026033;28;20041;-62
2022/07/12 12:10:40;;;;;;;3.78;1.60;;;22.90;66.80;;;;;;5005813;28;20513;-62
2022/07/12 12:13:15;;;;;;;4.82;1.27;;;22.90;66.90;;;;;;5030499;28;20128;-63
2022/07/12 12:15:49;;;;;;;2.30;1.42;;;22.90;66.70;;;;;;5027480;28;20037;-64
2022/07/12 12:18:15;;;;;;;2.05;1.25;;;22.90;66.80;;;;;;5029527;28;20037;-62
2022/07/12 12:20:43;;;;;;;3.13;1.15;;;22.90;66.90;;;;;;5028161;28;20041;-62
2022/07/12 12:23:19;;;;;;;1.95;1.50;;;22.90;66.70;;;;;;5025499;28;20033;-62
2022/07/12 12:25:45;;;;;;;2.33;1.27;;;22.90;66.80;;;;;;4993039;28;20045;-62
2022/07/12 12:28:12;;;;;;;4.72;1.40;;;22.90;66.90;;;;;;5027709;28;20930;-61
2022/07/12 12:30:59;;;;;;;3.40;1.27;;;22.90;66.90;;;;;;5029612;28;20045;-62
2022/07/12 12:33:35;;;;;;;4.43;1.40;;;23.00;66.70;;;;;;5028151;28;20053;-61
2022/07/12 12:36:18;;;;;;;3.58;1.40;;;23.00;66.70;;;;;;5009899;28;20037;-62
2022/07/12 12:38:44;;;;;;;1.33;1.02;;;23.00;66.60;;;;;;5027387;28;20041;-62
2022/07/12 12:41:11;;;;;;;3.40;1.30;;;22.90;66.30;;;;;;5013885;28;20161;-62
2022/07/12 12:43:36;;;;;;;3.30;1.13;;;22.90;66.30;;;;;;5031072;28;20410;-61
2022/07/12 12:46:02;;;;;;;2.88;1.30;;;23.00;66.50;;;;;;5009738;28;20051;-62
2022/07/12 12:48:30;;;;;;;2.20;1.17;;;23.00;66.50;;;;;;5010554;28;20044;-61
2022/07/12 12:51:04;;;;;;;2.83;1.20;;;23.00;66.40;;;;;;5020966;28;20815;-62
2022/07/12 12:53:30;;;;;;;1.38;1.00;;;23.00;66.30;;;;;;5026479;28;20044;-62
2022/07/12 12:55:56;;;;;;;1.85;1.10;;;23.00;66.10;;;;;;5027123;28;20041;-62
2022/07/12 12:58:26;;;;;;;2.75;1.20;;;23.00;65.90;;;;;;5027519;28;20030;-62
2022/07/12 13:00:54;;;;;;;4.93;1.35;;;23.00;66.00;;;;;;4992356;28;20041;-62